sensor_id;sensor_type;location;lat;lon;timestamp;pressure;altitude;pressure_sealevel;temperature;humidity
51781;BME280;37844;57.126;24.288;2023-04-06T00:01:44;102418.50;;;3.08;100.00
51781;BME280;37844;57.126;24.288;2023-04-06T00:04:27;102415.94;;;3.08;100.00
51781;BME280;37844;57.126;24.288;2023-04-06T00:07:11;102408.41;;;3.21;100.00
51781;BME280;37844;57.126;24.288;2023-04-06T00:09:55;102412.06;;;3.13;100.00
51781;BME280;37844;57.126;24.288;2023-04-06T00:12:39;102415.41;;;3.12;100.00
51781;BME280;37844;57.126;24.288;2023-04-06T00:15:23;102413.41;;;3.08;100.00
51781;BME280;37844;57.126;24.288;2023-04-06T00:18:07;102416.91;;;3.22;100.00
51781;BME280;37844;57.126;24.288;2023-04-06T00:20:51;102410.75;;;3.18;100.00
51781;BME280;37844;57.126;24.288;2023-04-06T00:23:35;102410.31;;;3.12;100.00
51781;BME280;37844;57.126;24.288;2023-04-06T00:26:19;102408.53;;;3.11;100.00
51781;BME280;37844;57.126;24.288;2023-04-06T00:29:03;102406.56;;;3.07;100.00
51781;BME280;37844;57.126;24.288;2023-04-06T00:31:47;102405.84;;;3.21;100.00
51781;BME280;37844;57.126;24.288;2023-04-06T00:34:31;102406.41;;;3.17;100.00
51781;BME280;37844;57.126;24.288;2023-04-06T00:37:15;102407.94;;;3.15;100.00
51781;BME280;37844;57.126;24.288;2023-04-06T00:39:59;102398.22;;;3.09;100.00
51781;BME280;37844;57.126;24.288;2023-04-06T00:42:43;102400.97;;;3.24;100.00
51781;BME280;37844;57.126;24.288;2023-04-06T00:45:28;102400.06;;;3.24;100.00
51781;BME280;37844;57.126;24.288;2023-04-06T00:48:12;102392.66;;;3.15;100.00
51781;BME280;37844;57.126;24.288;2023-04-06T00:50:57;102406.28;;;3.15;100.00
51781;BME280;37844;57.126;24.288;2023-04-06T00:53:41;102401.09;;;3.14;100.00
51781;BME280;37844;57.126;24.288;2023-04-06T00:56:25;102409.16;;;3.20;100.00
51781;BME280;37844;57.126;24.288;2023-04-06T00:59:10;102398.41;;;3.24;100.00
51781;BME280;37844;57.126;24.288;2023-04-06T01:01:54;102398.09;;;3.19;100.00
51781;BME280;37844;57.126;24.288;2023-04-06T01:04:38;102394.81;;;3.09;100.00
51781;BME280;37844;57.126;24.288;2023-04-06T01:07:22;102393.66;;;3.17;100.00
51781;BME280;37844;57.126;24.288;2023-04-06T01:10:06;102396.09;;;3.15;100.00
51781;BME280;37844;57.126;24.288;2023-04-06T01:12:50;102389.22;;;3.26;100.00
51781;BME280;37844;57.126;24.288;2023-04-06T01:15:34;102381.56;;;3.26;100.00
51781;BME280;37844;57.126;24.288;2023-04-06T01:18:28;102393.75;;;3.30;100.00
51781;BME280;37844;57.126;24.288;2023-04-06T01:21:12;102389.16;;;3.38;100.00
51781;BME280;37844;57.126;24.288;2023-04-06T01:23:59;102382.78;;;3.19;100.00
51781;BME280;37844;57.126;24.288;2023-04-06T01:26:43;102387.22;;;3.22;100.00
51781;BME280;37844;57.126;24.288;2023-04-06T01:29:27;102383.66;;;3.20;100.00
51781;BME280;37844;57.126;24.288;2023-04-06T01:32:11;102368.38;;;3.20;100.00
51781;BME280;37844;57.126;24.288;2023-04-06T01:34:55;102367.50;;;3.19;100.00
51781;BME280;37844;57.126;24.288;2023-04-06T01:37:39;102371.41;;;3.14;100.00
51781;BME280;37844;57.126;24.288;2023-04-06T01:40:24;102375.63;;;3.14;100.00
51781;BME280;37844;57.126;24.288;2023-04-06T01:43:07;102373.06;;;3.14;100.00
51781;BME280;37844;57.126;24.288;2023-04-06T01:45:51;102372.03;;;3.24;100.00
51781;BME280;37844;57.126;24.288;2023-04-06T01:48:35;102368.81;;;3.26;100.00
51781;BME280;37844;57.126;24.288;2023-04-06T01:51:20;102358.66;;;3.14;100.00
51781;BME280;37844;57.126;24.288;2023-04-06T01:54:04;102362.97;;;3.15;100.00
51781;BME280;37844;57.126;24.288;2023-04-06T01:56:48;102357.31;;;3.19;100.00
51781;BME280;37844;57.126;24.288;2023-04-06T01:59:34;102354.56;;;3.16;100.00
51781;BME280;37844;57.126;24.288;2023-04-06T02:02:18;102360.13;;;3.11;100.00
51781;BME280;37844;57.126;24.288;2023-04-06T02:05:02;102359.09;;;3.21;100.00
51781;BME280;37844;57.126;24.288;2023-04-06T02:07:46;102361.41;;;3.17;100.00
51781;BME280;37844;57.126;24.288;2023-04-06T02:10:30;102358.63;;;3.26;100.00
51781;BME280;37844;57.126;24.288;2023-04-06T02:13:14;102360.28;;;3.26;100.00
51781;BME280;37844;57.126;24.288;2023-04-06T02:15:58;102364.34;;;3.35;100.00
51781;BME280;37844;57.126;24.288;2023-04-06T02:18:42;102366.13;;;3.36;100.00
51781;BME280;37844;57.126;24.288;2023-04-06T02:21:26;102365.22;;;3.36;100.00
51781;BME280;37844;57.126;24.288;2023-04-06T02:24:10;102362.00;;;3.38;100.00
51781;BME280;37844;57.126;24.288;2023-04-06T02:26:54;102364.34;;;3.35;100.00
51781;BME280;37844;57.126;24.288;2023-04-06T02:29:38;102361.13;;;3.38;100.00
51781;BME280;37844;57.126;24.288;2023-04-06T02:32:22;102358.16;;;3.32;100.00
51781;BME280;37844;57.126;24.288;2023-04-06T02:35:06;102361.75;;;3.22;100.00
51781;BME280;37844;57.126;24.288;2023-04-06T02:37:50;102292.50;;;2.91;100.00
51781;BME280;37844;57.126;24.288;2023-04-06T02:40:34;102341.34;;;3.22;100.00
51781;BME280;37844;57.126;24.288;2023-04-06T02:43:18;102345.00;;;3.26;100.00
51781;BME280;37844;57.126;24.288;2023-04-06T02:46:03;102331.59;;;3.28;100.00
51781;BME280;37844;57.126;24.288;2023-04-06T02:48:46;102331.66;;;3.30;100.00
51781;BME280;37844;57.126;24.288;2023-04-06T02:51:30;102327.03;;;3.11;100.00
51781;BME280;37844;57.126;24.288;2023-04-06T02:54:14;102335.13;;;3.30;100.00
51781;BME280;37844;57.126;24.288;2023-04-06T02:56:58;102330.91;;;3.31;100.00
51781;BME280;37844;57.126;24.288;2023-04-06T02:59:42;102339.63;;;3.34;100.00
51781;BME280;37844;57.126;24.288;2023-04-06T03:02:26;102342.28;;;3.36;100.00
51781;BME280;37844;57.126;24.288;2023-04-06T03:05:10;102338.19;;;3.38;100.00
51781;BME280;37844;57.126;24.288;2023-04-06T03:07:54;102339.09;;;3.13;100.00
51781;BME280;37844;57.126;24.288;2023-04-06T03:10:38;102289.09;;;2.90;100.00
51781;BME280;37844;57.126;24.288;2023-04-06T03:13:22;102333.50;;;3.19;100.00
51781;BME280;37844;57.126;24.288;2023-04-06T03:16:06;102336.63;;;3.15;100.00
51781;BME280;37844;57.126;24.288;2023-04-06T03:18:50;102331.75;;;3.18;100.00
51781;BME280;37844;57.126;24.288;2023-04-06T03:21:34;102335.94;;;3.17;100.00
51781;BME280;37844;57.126;24.288;2023-04-06T03:24:18;102326.91;;;3.09;100.00
51781;BME280;37844;57.126;24.288;2023-04-06T03:27:02;102332.19;;;3.12;100.00
51781;BME280;37844;57.126;24.288;2023-04-06T03:29:46;102336.06;;;3.19;100.00
51781;BME280;37844;57.126;24.288;2023-04-06T03:32:30;102336.41;;;3.12;100.00
51781;BME280;37844;57.126;24.288;2023-04-06T03:35:14;102332.31;;;3.14;100.00
51781;BME280;37844;57.126;24.288;2023-04-06T03:37:58;102332.72;;;3.20;100.00
51781;BME280;37844;57.126;24.288;2023-04-06T03:40:42;102327.81;;;3.35;100.00
51781;BME280;37844;57.126;24.288;2023-04-06T03:43:26;102325.97;;;3.21;100.00
51781;BME280;37844;57.126;24.288;2023-04-06T03:46:10;102327.53;;;3.18;100.00
51781;BME280;37844;57.126;24.288;2023-04-06T03:48:54;102331.84;;;3.19;100.00
51781;BME280;37844;57.126;24.288;2023-04-06T03:51:38;102333.38;;;3.17;100.00
51781;BME280;37844;57.126;24.288;2023-04-06T03:54:22;102334.94;;;3.15;100.00
51781;BME280;37844;57.126;24.288;2023-04-06T03:57:06;102336.41;;;3.12;100.00
51781;BME280;37844;57.126;24.288;2023-04-06T03:59:50;102332.50;;;3.17;100.00
51781;BME280;37844;57.126;24.288;2023-04-06T04:02:34;102332.88;;;3.10;100.00
51781;BME280;37844;57.126;24.288;2023-04-06T04:05:18;102332.41;;;3.15;100.00
51781;BME280;37844;57.126;24.288;2023-04-06T04:08:02;102334.84;;;3.14;100.00
51781;BME280;37844;57.126;24.288;2023-04-06T04:10:46;102332.00;;;3.09;100.00
51781;BME280;37844;57.126;24.288;2023-04-06T04:13:30;102340.34;;;3.20;100.00
51781;BME280;37844;57.126;24.288;2023-04-06T04:16:14;102345.00;;;3.26;100.00
51781;BME280;37844;57.126;24.288;2023-04-06T04:18:58;102349.44;;;3.28;100.00
51781;BME280;37844;57.126;24.288;2023-04-06T04:21:45;102353.38;;;3.36;100.00
51781;BME280;37844;57.126;24.288;2023-04-06T04:24:30;102348.06;;;3.33;100.00
51781;BME280;37844;57.126;24.288;2023-04-06T04:27:14;102352.06;;;3.30;100.00
51781;BME280;37844;57.126;24.288;2023-04-06T04:29:58;102349.88;;;3.23;100.00
51781;BME280;37844;57.126;24.288;2023-04-06T04:32:42;102338.13;;;3.25;100.00
51781;BME280;37844;57.126;24.288;2023-04-06T04:35:26;102332.81;;;3.22;100.00
51781;BME280;37844;57.126;24.288;2023-04-06T04:38:10;102345.69;;;3.23;100.00
51781;BME280;37844;57.126;24.288;2023-04-06T04:40:54;102346.97;;;3.30;100.00
51781;BME280;37844;57.126;24.288;2023-04-06T04:43:37;102351.13;;;3.41;100.00
51781;BME280;37844;57.126;24.288;2023-04-06T04:46:22;102353.38;;;3.36;100.00
51781;BME280;37844;57.126;24.288;2023-04-06T04:49:05;102346.41;;;3.34;100.00
51781;BME280;37844;57.126;24.288;2023-04-06T04:51:49;102335.75;;;3.39;100.00
51781;BME280;37844;57.126;24.288;2023-04-06T04:54:36;102341.63;;;3.38;100.00
51781;BME280;37844;57.126;24.288;2023-04-06T04:57:20;102340.28;;;3.18;100.00
51781;BME280;37844;57.126;24.288;2023-04-06T05:00:04;102339.69;;;3.23;100.00
51781;BME280;37844;57.126;24.288;2023-04-06T05:02:48;102339.22;;;3.28;100.00
51781;BME280;37844;57.126;24.288;2023-04-06T05:05:32;102348.50;;;3.39;100.00
51781;BME280;37844;57.126;24.288;2023-04-06T05:08:16;102336.34;;;3.49;100.00
51781;BME280;37844;57.126;24.288;2023-04-06T05:11:00;102345.66;;;3.48;100.00
51781;BME280;37844;57.126;24.288;2023-04-06T05:13:44;102344.25;;;3.65;100.00
51781;BME280;37844;57.126;24.288;2023-04-06T05:16:28;102342.00;;;3.70;100.00
51781;BME280;37844;57.126;24.288;2023-04-06T05:19:12;102349.78;;;3.71;100.00
51781;BME280;37844;57.126;24.288;2023-04-06T05:21:56;102341.53;;;3.75;100.00
51781;BME280;37844;57.126;24.288;2023-04-06T05:24:40;102346.03;;;3.66;100.00
51781;BME280;37844;57.126;24.288;2023-04-06T05:27:24;102335.69;;;3.51;100.00
51781;BME280;37844;57.126;24.288;2023-04-06T05:30:09;102342.00;;;3.56;100.00
51781;BME280;37844;57.126;24.288;2023-04-06T05:32:53;102350.81;;;3.61;100.00
51781;BME280;37844;57.126;24.288;2023-04-06T05:35:37;102357.63;;;3.74;100.00
51781;BME280;37844;57.126;24.288;2023-04-06T05:38:21;102361.72;;;3.72;100.00
51781;BME280;37844;57.126;24.288;2023-04-06T05:41:05;102358.28;;;3.72;100.00
51781;BME280;37844;57.126;24.288;2023-04-06T05:43:49;102359.16;;;3.72;100.00
51781;BME280;37844;57.126;24.288;2023-04-06T05:46:33;102366.19;;;3.88;100.00
51781;BME280;37844;57.126;24.288;2023-04-06T05:49:17;102361.97;;;3.89;100.00
51781;BME280;37844;57.126;24.288;2023-04-06T05:52:01;102359.03;;;3.96;100.00
51781;BME280;37844;57.126;24.288;2023-04-06T05:54:51;102357.47;;;3.98;100.00
51781;BME280;37844;57.126;24.288;2023-04-06T05:57:35;102350.19;;;3.91;100.00
51781;BME280;37844;57.126;24.288;2023-04-06T06:00:19;102358.25;;;3.97;100.00
51781;BME280;37844;57.126;24.288;2023-04-06T06:03:03;102357.97;;;3.92;100.00
51781;BME280;37844;57.126;24.288;2023-04-06T06:05:48;102357.66;;;3.88;100.00
51781;BME280;37844;57.126;24.288;2023-04-06T06:08:31;102357.66;;;4.01;100.00
51781;BME280;37844;57.126;24.288;2023-04-06T06:11:18;102361.81;;;3.99;100.00
51781;BME280;37844;57.126;24.288;2023-04-06T06:14:02;102365.84;;;4.09;100.00
51781;BME280;37844;57.126;24.288;2023-04-06T06:16:47;102360.25;;;4.14;100.00
51781;BME280;37844;57.126;24.288;2023-04-06T06:19:31;102368.00;;;4.29;100.00
51781;BME280;37844;57.126;24.288;2023-04-06T06:22:15;102364.56;;;4.29;100.00
51781;BME280;37844;57.126;24.288;2023-04-06T06:24:59;102368.59;;;4.38;100.00
51781;BME280;37844;57.126;24.288;2023-04-06T06:27:43;102361.81;;;4.52;100.00
51781;BME280;37844;57.126;24.288;2023-04-06T06:30:27;102358.75;;;4.58;100.00
51781;BME280;37844;57.126;24.288;2023-04-06T06:33:11;102360.84;;;4.63;100.00
51781;BME280;37844;57.126;24.288;2023-04-06T06:35:55;102363.59;;;4.53;100.00
51781;BME280;37844;57.126;24.288;2023-04-06T06:38:39;102361.59;;;4.62;100.00
51781;BME280;37844;57.126;24.288;2023-04-06T06:41:22;102361.50;;;4.74;100.00
51781;BME280;37844;57.126;24.288;2023-04-06T06:44:06;102353.75;;;4.73;100.00
51781;BME280;37844;57.126;24.288;2023-04-06T06:46:50;102350.78;;;4.80;100.00
51781;BME280;37844;57.126;24.288;2023-04-06T06:49:34;102355.09;;;4.81;100.00
51781;BME280;37844;57.126;24.288;2023-04-06T06:52:19;102349.97;;;4.94;100.00
51781;BME280;37844;57.126;24.288;2023-04-06T06:55:03;102339.50;;;5.04;100.00
51781;BME280;37844;57.126;24.288;2023-04-06T06:57:47;102344.78;;;5.21;100.00
51781;BME280;37844;57.126;24.288;2023-04-06T07:00:31;102339.13;;;5.26;100.00
51781;BME280;37844;57.126;24.288;2023-04-06T07:03:15;102343.31;;;5.24;100.00
51781;BME280;37844;57.126;24.288;2023-04-06T07:05:59;102335.44;;;5.21;100.00
51781;BME280;37844;57.126;24.288;2023-04-06T07:08:43;102339.94;;;5.25;100.00
51781;BME280;37844;57.126;24.288;2023-04-06T07:11:27;102338.38;;;5.42;100.00
51781;BME280;37844;57.126;24.288;2023-04-06T07:14:11;102338.38;;;5.42;100.00
51781;BME280;37844;57.126;24.288;2023-04-06T07:16:55;102336.63;;;5.41;100.00
51781;BME280;37844;57.126;24.288;2023-04-06T07:19:39;102340.38;;;5.33;100.00
51781;BME280;37844;57.126;24.288;2023-04-06T07:22:22;102343.47;;;5.27;100.00
51781;BME280;37844;57.126;24.288;2023-04-06T07:25:07;102338.81;;;5.35;100.00
51781;BME280;37844;57.126;24.288;2023-04-06T07:27:51;102339.47;;;5.46;100.00
51781;BME280;37844;57.126;24.288;2023-04-06T07:30:36;102338.84;;;5.50;100.00
51781;BME280;37844;57.126;24.288;2023-04-06T07:33:20;102348.56;;;5.56;100.00
51781;BME280;37844;57.126;24.288;2023-04-06T07:36:04;102344.00;;;5.65;100.00
51781;BME280;37844;57.126;24.288;2023-04-06T07:38:49;102341.28;;;5.77;100.00
51781;BME280;37844;57.126;24.288;2023-04-06T07:41:33;102342.41;;;5.82;100.00
51781;BME280;37844;57.126;24.288;2023-04-06T07:44:17;102348.59;;;6.00;100.00
51781;BME280;37844;57.126;24.288;2023-04-06T07:47:00;102348.28;;;5.94;100.00
51781;BME280;37844;57.126;24.288;2023-04-06T07:49:45;102350.56;;;6.04;100.00
51781;BME280;37844;57.126;24.288;2023-04-06T07:52:28;102350.56;;;6.04;100.00
51781;BME280;37844;57.126;24.288;2023-04-06T07:55:12;102352.78;;;5.98;100.00
51781;BME280;37844;57.126;24.288;2023-04-06T07:57:56;102353.22;;;6.06;100.00
51781;BME280;37844;57.126;24.288;2023-04-06T08:00:40;102352.66;;;6.11;100.00
51781;BME280;37844;57.126;24.288;2023-04-06T08:03:24;102352.34;;;6.05;100.00
51781;BME280;37844;57.126;24.288;2023-04-06T08:06:09;102354.31;;;6.26;100.00
51781;BME280;37844;57.126;24.288;2023-04-06T08:08:53;102357.41;;;6.35;100.00
51781;BME280;37844;57.126;24.288;2023-04-06T08:11:37;102358.22;;;6.19;100.00
51781;BME280;37844;57.126;24.288;2023-04-06T08:14:21;102353.88;;;5.88;100.00
51781;BME280;37844;57.126;24.288;2023-04-06T08:17:05;102354.44;;;5.98;100.00
51781;BME280;37844;57.126;24.288;2023-04-06T08:19:49;102361.38;;;5.85;100.00
51781;BME280;37844;57.126;24.288;2023-04-06T08:22:33;102359.84;;;5.74;100.00
51781;BME280;37844;57.126;24.288;2023-04-06T08:25:17;102361.38;;;5.70;100.00
51781;BME280;37844;57.126;24.288;2023-04-06T08:28:01;102352.63;;;5.67;100.00
51781;BME280;37844;57.126;24.288;2023-04-06T08:30:45;102352.38;;;5.77;100.00
51781;BME280;37844;57.126;24.288;2023-04-06T08:33:29;102362.97;;;5.83;100.00
51781;BME280;37844;57.126;24.288;2023-04-06T08:36:14;102355.94;;;5.94;100.00
51781;BME280;37844;57.126;24.288;2023-04-06T08:39:02;102355.06;;;6.08;100.00
51781;BME280;37844;57.126;24.288;2023-04-06T08:41:46;102357.47;;;6.05;100.00
51781;BME280;37844;57.126;24.288;2023-04-06T08:44:31;102368.13;;;6.13;100.00
51781;BME280;37844;57.126;24.288;2023-04-06T08:47:15;102369.00;;;6.13;100.00
51781;BME280;37844;57.126;24.288;2023-04-06T08:49:59;102354.78;;;6.19;100.00
51781;BME280;37844;57.126;24.288;2023-04-06T08:52:46;102366.59;;;6.16;100.00
51781;BME280;37844;57.126;24.288;2023-04-06T08:55:31;102368.75;;;6.09;100.00
51781;BME280;37844;57.126;24.288;2023-04-06T08:58:15;102373.66;;;5.91;100.00
51781;BME280;37844;57.126;24.288;2023-04-06T09:01:00;102367.50;;;6.02;100.00
51781;BME280;37844;57.126;24.288;2023-04-06T09:03:44;102362.22;;;5.99;100.00
51781;BME280;37844;57.126;24.288;2023-04-06T09:06:30;102368.53;;;5.91;100.00
51781;BME280;37844;57.126;24.288;2023-04-06T09:09:14;102359.53;;;5.98;100.00
51781;BME280;37844;57.126;24.288;2023-04-06T09:11:58;102358.69;;;5.97;100.00
51781;BME280;37844;57.126;24.288;2023-04-06T09:14:49;102351.63;;;6.08;100.00
51781;BME280;37844;57.126;24.288;2023-04-06T09:17:33;102364.13;;;6.33;100.00
51781;BME280;37844;57.126;24.288;2023-04-06T09:20:22;102359.25;;;6.37;100.00
51781;BME280;37844;57.126;24.288;2023-04-06T09:23:06;102358.91;;;6.46;100.00
51781;BME280;37844;57.126;24.288;2023-04-06T09:25:50;102349.84;;;6.68;100.00
51781;BME280;37844;57.126;24.288;2023-04-06T09:31:43;102355.56;;;6.64;100.00
51781;BME280;37844;57.126;24.288;2023-04-06T09:34:27;102364.84;;;6.62;100.00
51781;BME280;37844;57.126;24.288;2023-04-06T09:37:12;102354.59;;;6.62;100.00
51781;BME280;37844;57.126;24.288;2023-04-06T09:40:06;102360.66;;;6.47;100.00
51781;BME280;37844;57.126;24.288;2023-04-06T09:42:50;102370.84;;;6.46;100.00
51781;BME280;37844;57.126;24.288;2023-04-06T09:45:36;102369.44;;;6.36;100.00
51781;BME280;37844;57.126;24.288;2023-04-06T09:48:20;102362.44;;;6.48;100.00
51781;BME280;37844;57.126;24.288;2023-04-06T09:51:05;102362.38;;;6.63;100.00
51781;BME280;37844;57.126;24.288;2023-04-06T09:53:52;102362.50;;;6.50;100.00
51781;BME280;37844;57.126;24.288;2023-04-06T09:56:37;102357.25;;;6.63;100.00
51781;BME280;37844;57.126;24.288;2023-04-06T10:02:08;102351.22;;;6.46;100.00
51781;BME280;37844;57.126;24.288;2023-04-06T10:05:02;102349.47;;;6.62;100.00
51781;BME280;37844;57.126;24.288;2023-04-06T10:07:48;102350.25;;;6.44;100.00
51781;BME280;37844;57.126;24.288;2023-04-06T10:10:34;102354.22;;;6.39;100.00
51781;BME280;37844;57.126;24.288;2023-04-06T10:13:19;102346.81;;;6.44;100.00
51781;BME280;37844;57.126;24.288;2023-04-06T10:16:03;102347.38;;;6.54;100.00
51781;BME280;37844;57.126;24.288;2023-04-06T10:18:50;102338.50;;;6.64;100.00
51781;BME280;37844;57.126;24.288;2023-04-06T10:21:35;102344.00;;;6.70;100.00
51781;BME280;37844;57.126;24.288;2023-04-06T10:24:21;102338.31;;;6.76;100.00
51781;BME280;37844;57.126;24.288;2023-04-06T10:27:06;102337.38;;;6.74;100.00
51781;BME280;37844;57.126;24.288;2023-04-06T10:29:50;102331.66;;;6.63;100.00
51781;BME280;37844;57.126;24.288;2023-04-06T10:32:35;102345.44;;;6.65;100.00
51781;BME280;37844;57.126;24.288;2023-04-06T10:35:19;102348.06;;;6.67;100.00
51781;BME280;37844;57.126;24.288;2023-04-06T10:38:04;102336.16;;;6.67;100.00
51781;BME280;37844;57.126;24.288;2023-04-06T10:40:48;102343.31;;;6.89;100.00
51781;BME280;37844;57.126;24.288;2023-04-06T10:43:33;102347.28;;;6.68;100.00
51781;BME280;37844;57.126;24.288;2023-04-06T10:46:24;102347.53;;;6.72;100.00
51781;BME280;37844;57.126;24.288;2023-04-06T10:49:11;102340.97;;;6.77;100.00
51781;BME280;37844;57.126;24.288;2023-04-06T10:51:58;102354.84;;;6.81;100.00
51781;BME280;37844;57.126;24.288;2023-04-06T10:54:42;102348.50;;;6.74;100.00
51781;BME280;37844;57.126;24.288;2023-04-06T10:57:28;102340.50;;;6.85;100.00
51781;BME280;37844;57.126;24.288;2023-04-06T11:00:12;102343.22;;;6.88;100.00
51781;BME280;37844;57.126;24.288;2023-04-06T11:03:00;102345.69;;;6.70;100.00
51781;BME280;37844;57.126;24.288;2023-04-06T11:05:47;102349.94;;;6.86;100.00
51781;BME280;37844;57.126;24.288;2023-04-06T11:08:32;102343.31;;;7.06;100.00
51781;BME280;37844;57.126;24.288;2023-04-06T11:11:17;102338.59;;;7.13;100.00
51781;BME280;37844;57.126;24.288;2023-04-06T11:14:02;102334.88;;;6.92;100.00
51781;BME280;37844;57.126;24.288;2023-04-06T11:16:47;102343.47;;;6.92;100.00
51781;BME280;37844;57.126;24.288;2023-04-06T11:19:34;102343.69;;;6.97;100.00
51781;BME280;37844;57.126;24.288;2023-04-06T11:22:18;102345.78;;;7.04;100.00
51781;BME280;37844;57.126;24.288;2023-04-06T11:25:05;102345.97;;;7.07;100.00
51781;BME280;37844;57.126;24.288;2023-04-06T11:27:50;102345.25;;;7.10;100.00
51781;BME280;37844;57.126;24.288;2023-04-06T11:30:34;102345.16;;;7.08;100.00
51781;BME280;37844;57.126;24.288;2023-04-06T11:33:22;102345.78;;;7.04;100.00
51781;BME280;37844;57.126;24.288;2023-04-06T11:36:06;102343.06;;;7.01;100.00
51781;BME280;37844;57.126;24.288;2023-04-06T11:38:50;102344.03;;;7.03;100.00
51781;BME280;37844;57.126;24.288;2023-04-06T11:41:34;102347.09;;;7.12;100.00
51781;BME280;37844;57.126;24.288;2023-04-06T11:47:12;102350.38;;;6.93;100.00
51781;BME280;37844;57.126;24.288;2023-04-06T11:50:04;102350.63;;;6.98;100.00
51781;BME280;37844;57.126;24.288;2023-04-06T11:52:57;102345.06;;;6.90;100.00
51781;BME280;37844;57.126;24.288;2023-04-06T11:55:41;102344.44;;;6.94;100.00
51781;BME280;37844;57.126;24.288;2023-04-06T11:58:29;102344.75;;;7.00;100.00
51781;BME280;37844;57.126;24.288;2023-04-06T12:01:13;102340.66;;;6.88;100.00
51781;BME280;37844;57.126;24.288;2023-04-06T12:03:57;102341.47;;;7.03;100.00
51781;BME280;37844;57.126;24.288;2023-04-06T12:06:42;102344.91;;;6.87;100.00
51781;BME280;37844;57.126;24.288;2023-04-06T12:09:26;102341.00;;;6.94;100.00
51781;BME280;37844;57.126;24.288;2023-04-06T12:12:10;102340.50;;;7.01;100.00
51781;BME280;37844;57.126;24.288;2023-04-06T12:14:54;102336.81;;;6.96;100.00
51781;BME280;37844;57.126;24.288;2023-04-06T12:17:38;102332.69;;;7.14;100.00
51781;BME280;37844;57.126;24.288;2023-04-06T12:20:22;102331.94;;;7.00;100.00
51781;BME280;37844;57.126;24.288;2023-04-06T12:23:06;102336.72;;;6.94;100.00
51781;BME280;37844;57.126;24.288;2023-04-06T12:25:50;102327.69;;;7.01;100.00
51781;BME280;37844;57.126;24.288;2023-04-06T12:28:34;102330.59;;;7.07;100.00
51781;BME280;37844;57.126;24.288;2023-04-06T12:31:18;102324.91;;;7.13;100.00
51781;BME280;37844;57.126;24.288;2023-04-06T12:34:03;102328.25;;;7.28;100.00
51781;BME280;37844;57.126;24.288;2023-04-06T12:36:47;102323.78;;;7.40;100.00
51781;BME280;37844;57.126;24.288;2023-04-06T12:39:31;102320.47;;;7.43;100.00
51781;BME280;37844;57.126;24.288;2023-04-06T12:42:15;102322.59;;;7.52;100.00
51781;BME280;37844;57.126;24.288;2023-04-06T12:44:59;102315.97;;;7.39;100.00
51781;BME280;37844;57.126;24.288;2023-04-06T12:47:43;102311.81;;;7.41;100.00
51781;BME280;37844;57.126;24.288;2023-04-06T12:50:27;102311.72;;;7.39;100.00
51781;BME280;37844;57.126;24.288;2023-04-06T12:53:11;102319.03;;;7.32;100.00
51781;BME280;37844;57.126;24.288;2023-04-06T12:55:55;102317.91;;;7.43;100.00
51781;BME280;37844;57.126;24.288;2023-04-06T12:58:40;102313.28;;;7.36;100.00
51781;BME280;37844;57.126;24.288;2023-04-06T13:01:25;102310.44;;;7.48;100.00
51781;BME280;37844;57.126;24.288;2023-04-06T13:04:11;102305.13;;;7.44;100.00
51781;BME280;37844;57.126;24.288;2023-04-06T13:06:55;102301.13;;;7.50;100.00
51781;BME280;37844;57.126;24.288;2023-04-06T13:09:39;102303.41;;;7.43;100.00
51781;BME280;37844;57.126;24.288;2023-04-06T13:12:23;102299.97;;;7.27;100.00
51781;BME280;37844;57.126;24.288;2023-04-06T13:15:16;102304.91;;;7.40;100.00
51781;BME280;37844;57.126;24.288;2023-04-06T13:18:00;102295.94;;;7.48;100.00
51781;BME280;37844;57.126;24.288;2023-04-06T13:20:44;102296.56;;;7.44;100.00
51781;BME280;37844;57.126;24.288;2023-04-06T13:23:34;102298.56;;;7.50;100.00
51781;BME280;37844;57.126;24.288;2023-04-06T13:26:19;102302.56;;;7.44;100.00
51781;BME280;37844;57.126;24.288;2023-04-06T13:29:03;102289.69;;;7.43;100.00
51781;BME280;37844;57.126;24.288;2023-04-06T13:31:47;102286.91;;;7.38;100.00
51781;BME280;37844;57.126;24.288;2023-04-06T13:34:31;102296.91;;;7.50;100.00
51781;BME280;37844;57.126;24.288;2023-04-06T13:37:15;102290.22;;;7.54;100.00
51781;BME280;37844;57.126;24.288;2023-04-06T13:39:59;102294.63;;;7.56;100.00
51781;BME280;37844;57.126;24.288;2023-04-06T13:42:43;102290.09;;;7.69;100.00
51781;BME280;37844;57.126;24.288;2023-04-06T13:45:28;102288.34;;;7.68;100.00
51781;BME280;37844;57.126;24.288;2023-04-06T13:48:12;102288.84;;;7.60;100.00
51781;BME280;37844;57.126;24.288;2023-04-06T13:50:57;102287.53;;;7.69;100.00
51781;BME280;37844;57.126;24.288;2023-04-06T13:53:41;102288.47;;;7.71;100.00
51781;BME280;37844;57.126;24.288;2023-04-06T13:56:25;102288.44;;;7.69;100.00
51781;BME280;37844;57.126;24.288;2023-04-06T13:59:09;102285.47;;;7.61;100.00
51781;BME280;37844;57.126;24.288;2023-04-06T14:01:53;102287.47;;;7.67;100.00
51781;BME280;37844;57.126;24.288;2023-04-06T14:04:37;102285.91;;;7.71;100.00
51781;BME280;37844;57.126;24.288;2023-04-06T14:07:21;102281.38;;;7.65;100.00
51781;BME280;37844;57.126;24.288;2023-04-06T14:10:06;102292.75;;;7.70;100.00
51781;BME280;37844;57.126;24.288;2023-04-06T14:12:57;102287.25;;;7.62;100.00
51781;BME280;37844;57.126;24.288;2023-04-06T14:15:41;102278.44;;;7.57;100.00
51781;BME280;37844;57.126;24.288;2023-04-06T14:18:25;102276.94;;;7.79;100.00